createdAt,value
2022-10-17T00:00:29.969Z,12.50
2022-10-17T00:02:57.375Z,12.50
2022-10-17T00:05:25.057Z,12.50
2022-10-17T00:07:53.050Z,12.50
2022-10-17T00:10:20.816Z,12.50
2022-10-17T00:12:47.847Z,12.50
2022-10-17T00:15:17.495Z,12.50
2022-10-17T00:17:44.333Z,12.50
2022-10-17T00:20:12.149Z,12.50
2022-10-17T00:22:38.914Z,12.50
2022-10-17T00:25:06.246Z,12.50
2022-10-17T00:27:38.068Z,12.50
2022-10-17T00:30:07.163Z,12.60
2022-10-17T00:32:34.257Z,12.60
2022-10-17T00:35:01.028Z,12.60
2022-10-17T00:37:29.784Z,12.60
2022-10-17T00:39:56.827Z,12.60
2022-10-17T00:42:25.157Z,12.60
2022-10-17T00:45:15.430Z,12.60
2022-10-17T00:47:43.337Z,12.60
2022-10-17T00:50:11.783Z,12.70
2022-10-17T00:52:39.028Z,12.70
2022-10-17T00:55:35.421Z,12.70
2022-10-17T00:58:04.613Z,12.70
2022-10-17T01:00:31.605Z,12.70
2022-10-17T01:02:58.511Z,12.80
2022-10-17T01:05:25.622Z,12.80
2022-10-17T01:07:53.938Z,12.80
2022-10-17T01:13:33.099Z,12.80
2022-10-17T01:16:06.529Z,12.80
2022-10-17T01:18:40.036Z,12.80
2022-10-17T01:21:19.486Z,12.70
2022-10-17T01:24:17.560Z,12.70
2022-10-17T01:27:27.812Z,12.60
2022-10-17T01:30:23.992Z,12.50
2022-10-17T01:33:13.869Z,12.50
2022-10-17T01:35:40.843Z,12.40
2022-10-17T01:38:23.839Z,12.40
2022-10-17T01:41:02.596Z,12.30
2022-10-17T01:43:47.457Z,12.30
2022-10-17T01:46:20.947Z,12.30
2022-10-17T01:48:47.699Z,12.20
2022-10-17T01:51:21.431Z,12.20
2022-10-17T01:54:19.432Z,12.20
2022-10-17T01:56:47.881Z,12.10
2022-10-17T01:59:22.983Z,12.10
2022-10-17T02:01:53.517Z,12.10
2022-10-17T02:04:21.062Z,12.10
2022-10-17T02:06:47.930Z,12.00
2022-10-17T02:09:22.771Z,12.00
2022-10-17T02:12:27.761Z,12.00
2022-10-17T02:15:00.496Z,12.00
2022-10-17T02:17:36.732Z,12.00
2022-10-17T02:20:42.405Z,12.00
2022-10-17T02:23:28.552Z,11.90
2022-10-17T02:26:06.461Z,11.90
2022-10-17T02:28:47.233Z,11.90
2022-10-17T02:31:21.371Z,11.90
2022-10-17T02:33:55.166Z,11.90
2022-10-17T02:36:29.074Z,11.90
2022-10-17T02:38:56.893Z,11.90
2022-10-17T02:41:25.423Z,11.90
2022-10-17T02:43:53.981Z,12.00
2022-10-17T02:46:24.719Z,12.00
2022-10-17T02:49:17.523Z,12.00
2022-10-17T02:51:57.712Z,12.00
2022-10-17T02:54:57.539Z,12.00
2022-10-17T02:57:27.086Z,12.10
2022-10-17T02:59:57.452Z,12.10
2022-10-17T03:02:24.677Z,12.10
2022-10-17T03:04:51.630Z,12.10
2022-10-17T03:07:18.447Z,12.10
2022-10-17T03:09:45.322Z,12.10
2022-10-17T03:12:12.105Z,12.10
2022-10-17T03:14:38.895Z,12.10
2022-10-17T03:17:05.676Z,12.10
2022-10-17T03:19:32.548Z,12.10
2022-10-17T03:21:59.327Z,12.10
2022-10-17T03:24:26.135Z,12.10
2022-10-17T03:26:52.979Z,12.10
2022-10-17T03:29:19.810Z,12.10
2022-10-17T03:31:46.593Z,12.10
2022-10-17T03:34:13.521Z,12.20
2022-10-17T03:36:40.309Z,12.20
2022-10-17T03:39:07.063Z,12.20
2022-10-17T03:41:33.946Z,12.20
2022-10-17T03:44:00.878Z,12.20
2022-10-17T03:46:27.714Z,12.20
2022-10-17T03:48:54.556Z,12.20
2022-10-17T03:51:21.686Z,12.30
2022-10-17T03:53:48.562Z,12.20
2022-10-17T03:56:20.972Z,12.30
2022-10-17T03:58:48.457Z,12.30
2022-10-17T04:01:17.213Z,12.30
2022-10-17T04:03:44.226Z,12.30
2022-10-17T04:06:12.758Z,12.40
2022-10-17T04:08:39.992Z,12.40
2022-10-17T04:11:08.509Z,12.40
2022-10-17T04:13:35.547Z,12.40
2022-10-17T04:16:05.586Z,12.40
2022-10-17T04:18:32.968Z,12.50
2022-10-17T04:21:03.178Z,12.50
2022-10-17T04:23:30.180Z,12.60
2022-10-17T04:25:58.088Z,12.60
2022-10-17T04:28:26.200Z,12.60
2022-10-17T04:31:00.979Z,12.70
2022-10-17T04:33:28.053Z,12.70
2022-10-17T04:36:07.143Z,12.70
2022-10-17T04:38:34.818Z,12.70
2022-10-17T04:41:03.620Z,12.70
2022-10-17T04:43:31.973Z,12.70
2022-10-17T04:45:59.908Z,12.80
2022-10-17T04:48:27.731Z,12.80
2022-10-17T04:50:59.705Z,12.80
2022-10-17T04:53:27.118Z,12.80
2022-10-17T04:55:54.220Z,12.80
2022-10-17T04:58:22.049Z,12.80
2022-10-17T05:00:48.967Z,12.80
2022-10-17T05:03:15.931Z,12.80
2022-10-17T05:05:43.097Z,12.80
2022-10-17T05:08:11.270Z,12.80
2022-10-17T05:10:39.750Z,12.80
2022-10-17T05:13:07.021Z,12.90
2022-10-17T05:15:33.895Z,12.90
2022-10-17T05:18:00.997Z,12.90
2022-10-17T05:20:28.104Z,12.90
2022-10-17T05:22:54.964Z,13.00
2022-10-17T05:25:22.116Z,13.00
2022-10-17T05:27:49.176Z,13.00
2022-10-17T05:30:16.194Z,13.00
2022-10-17T05:32:43.015Z,13.10
2022-10-17T05:35:09.868Z,13.10
2022-10-17T05:37:36.725Z,13.10
2022-10-17T05:40:04.770Z,13.20
2022-10-17T05:42:32.129Z,13.20
2022-10-17T05:44:59.190Z,13.20
2022-10-17T05:47:26.261Z,13.20
2022-10-17T05:49:53.048Z,13.20
2022-10-17T05:52:19.908Z,13.30
2022-10-17T05:54:46.706Z,13.30
2022-10-17T05:57:13.632Z,13.30
2022-10-17T05:59:40.426Z,13.30
2022-10-17T06:02:07.278Z,13.40
2022-10-17T06:04:34.231Z,13.40
2022-10-17T06:07:01.029Z,13.40
2022-10-17T06:09:28.616Z,13.40
2022-10-17T06:11:55.439Z,13.40
2022-10-17T06:14:22.270Z,13.50
2022-10-17T06:16:49.294Z,13.40
2022-10-17T06:19:16.230Z,13.50
2022-10-17T06:21:43.321Z,13.50
2022-10-17T06:24:10.173Z,13.60
2022-10-17T06:26:37.045Z,13.60
2022-10-17T06:29:03.943Z,13.60
2022-10-17T06:31:30.773Z,13.70
2022-10-17T06:33:57.550Z,13.70
2022-10-17T06:36:24.433Z,13.80
2022-10-17T06:38:51.503Z,13.80
2022-10-17T06:41:19.433Z,13.80
2022-10-17T06:43:47.340Z,13.90
2022-10-17T06:46:16.565Z,13.90
2022-10-17T06:48:43.670Z,14.00
2022-10-17T06:51:11.482Z,14.00
2022-10-17T06:53:39.977Z,14.10
2022-10-17T06:56:08.352Z,14.20
2022-10-17T06:58:39.104Z,14.20
2022-10-17T07:01:11.936Z,14.30
2022-10-17T07:03:39.560Z,14.30
2022-10-17T07:06:06.598Z,14.40
2022-10-17T07:08:33.709Z,14.40
2022-10-17T07:11:18.416Z,14.50
2022-10-17T07:13:45.828Z,14.60
2022-10-17T07:16:13.778Z,14.60
2022-10-17T07:18:41.092Z,14.70
2022-10-17T07:21:08.932Z,14.80
2022-10-17T07:23:37.051Z,14.90
2022-10-17T07:26:09.582Z,14.90
2022-10-17T07:28:39.794Z,15.00
2022-10-17T07:31:09.075Z,15.10
2022-10-17T07:33:36.205Z,15.20
2022-10-17T07:36:04.179Z,15.30
2022-10-17T07:38:31.520Z,15.40
2022-10-17T07:41:00.986Z,15.50
2022-10-17T07:43:28.945Z,15.60
2022-10-17T07:45:55.815Z,15.80
2022-10-17T07:48:24.251Z,15.90
2022-10-17T07:50:51.315Z,16.10
2022-10-17T07:53:18.527Z,16.20
2022-10-17T07:55:46.630Z,16.30
2022-10-17T07:58:14.343Z,16.40
2022-10-17T08:00:41.696Z,16.50
2022-10-17T08:03:10.867Z,16.60
2022-10-17T08:05:37.618Z,16.60
2022-10-17T08:08:04.578Z,16.60
2022-10-17T08:10:31.396Z,16.70
2022-10-17T08:12:59.058Z,16.60
2022-10-17T08:15:30.912Z,16.60
2022-10-17T08:17:59.532Z,16.60
2022-10-17T08:20:26.576Z,16.50
2022-10-17T08:22:54.923Z,16.60
2022-10-17T08:25:22.518Z,16.60
2022-10-17T08:27:49.896Z,16.60
2022-10-17T08:30:17.573Z,16.70
2022-10-17T08:32:44.618Z,16.80
2022-10-17T08:35:11.824Z,16.90
2022-10-17T08:37:38.722Z,16.90
2022-10-17T08:40:06.276Z,16.90
2022-10-17T08:42:42.127Z,17.00
2022-10-17T08:45:24.282Z,17.00
2022-10-17T08:48:02.727Z,17.00
2022-10-17T08:50:40.327Z,17.00
2022-10-17T08:53:31.149Z,17.10
2022-10-17T08:56:01.187Z,17.10
2022-10-17T08:58:34.305Z,17.10
2022-10-17T09:01:32.278Z,17.20
2022-10-17T09:04:14.199Z,17.30
2022-10-17T09:06:48.344Z,17.30
2022-10-17T09:09:59.272Z,17.40
2022-10-17T09:12:43.837Z,17.50
2022-10-17T09:15:43.230Z,17.50
2022-10-17T09:18:21.177Z,17.50
2022-10-17T09:20:52.108Z,17.50
2022-10-17T09:23:23.883Z,17.50
2022-10-17T09:25:54.281Z,17.50
2022-10-17T09:28:28.174Z,17.50
2022-10-17T09:31:27.301Z,17.50
2022-10-17T09:33:57.281Z,17.60
2022-10-17T09:36:34.409Z,17.60
2022-10-17T09:39:17.697Z,17.80
2022-10-17T09:41:52.019Z,17.90
2022-10-17T09:44:29.195Z,18.00
2022-10-17T09:47:02.096Z,18.00
2022-10-17T09:49:34.865Z,18.00
2022-10-17T09:52:04.952Z,18.10
2022-10-17T09:54:48.098Z,18.10
2022-10-17T09:57:16.784Z,18.10
2022-10-17T09:59:55.740Z,18.10
2022-10-17T10:02:24.292Z,18.20
2022-10-17T10:05:04.062Z,18.20
2022-10-17T10:07:34.289Z,18.10
2022-10-17T10:10:03.224Z,18.10
2022-10-17T10:12:36.757Z,18.00
2022-10-17T10:15:37.850Z,17.80
2022-10-17T10:18:24.827Z,17.60
2022-10-17T10:21:04.017Z,17.30
2022-10-17T10:23:30.909Z,17.20
2022-10-17T10:26:03.478Z,17.00
2022-10-17T10:28:33.900Z,16.90
2022-10-17T10:31:04.701Z,16.80
2022-10-17T10:33:33.663Z,16.70
2022-10-17T10:36:07.872Z,16.60
2022-10-17T10:38:35.891Z,16.60
2022-10-17T10:41:11.458Z,16.50
2022-10-17T10:43:46.470Z,16.50
2022-10-17T10:46:27.964Z,16.50
2022-10-17T10:48:58.556Z,16.40
2022-10-17T10:51:46.778Z,16.40
2022-10-17T10:54:25.166Z,16.40
2022-10-17T10:57:04.636Z,16.40
2022-10-17T10:59:43.135Z,16.40
2022-10-17T11:02:21.999Z,16.30
2022-10-17T11:04:56.235Z,16.30
2022-10-17T11:07:32.507Z,16.30
2022-10-17T11:10:33.439Z,16.30
2022-10-17T11:13:06.345Z,16.30
2022-10-17T11:15:57.988Z,16.30
2022-10-17T11:18:30.423Z,16.20
2022-10-17T11:21:13.678Z,16.30
2022-10-17T11:23:48.114Z,16.30
2022-10-17T11:26:27.433Z,16.30
2022-10-17T11:28:58.912Z,16.30
2022-10-17T11:31:31.943Z,16.30
2022-10-17T11:34:04.487Z,16.40
2022-10-17T11:36:36.163Z,16.40
2022-10-17T11:39:10.292Z,16.40
2022-10-17T11:41:59.822Z,16.40
2022-10-17T11:44:39.549Z,16.40
2022-10-17T11:47:29.867Z,16.40
2022-10-17T11:53:16.399Z,16.40
2022-10-17T11:55:44.284Z,16.50
2022-10-17T11:58:22.986Z,16.50
2022-10-17T12:01:08.389Z,16.50
2022-10-17T12:04:04.261Z,16.50
2022-10-17T12:06:37.581Z,16.40
2022-10-17T12:09:37.952Z,16.40
2022-10-17T12:12:04.996Z,16.40
2022-10-17T12:14:47.180Z,16.40
2022-10-17T12:17:37.056Z,16.40
2022-10-17T12:20:25.861Z,16.40
2022-10-17T12:22:57.625Z,16.30
2022-10-17T12:25:32.105Z,16.40
2022-10-17T12:28:11.416Z,16.30
2022-10-17T12:30:59.729Z,16.30
2022-10-17T12:33:48.272Z,16.30
2022-10-17T12:36:27.035Z,16.40
2022-10-17T12:39:02.719Z,16.40
2022-10-17T12:41:39.440Z,16.50
2022-10-17T12:44:15.546Z,16.50
2022-10-17T12:46:57.614Z,16.60
2022-10-17T12:49:43.661Z,16.60
2022-10-17T12:52:31.562Z,16.60
2022-10-17T12:55:12.116Z,16.70
2022-10-17T12:58:01.269Z,16.80
2022-10-17T13:00:37.208Z,16.90
2022-10-17T13:03:30.262Z,17.00
2022-10-17T13:06:00.957Z,17.10
2022-10-17T13:08:35.735Z,17.10
2022-10-17T13:11:03.278Z,17.10
2022-10-17T13:13:52.641Z,17.10
2022-10-17T13:16:34.611Z,17.00
2022-10-17T13:19:04.831Z,17.00
2022-10-17T13:21:31.641Z,17.00
2022-10-17T13:23:58.428Z,16.90
2022-10-17T13:26:28.132Z,16.90
2022-10-17T13:29:06.714Z,16.90
2022-10-17T13:31:39.470Z,16.90
2022-10-17T13:34:16.220Z,16.90
2022-10-17T13:36:48.750Z,16.90
2022-10-17T13:39:23.128Z,17.00
2022-10-17T13:41:59.767Z,17.00
2022-10-17T13:44:32.056Z,17.00
2022-10-17T13:46:58.957Z,17.00
2022-10-17T13:49:36.918Z,17.00
2022-10-17T13:52:06.327Z,17.10
2022-10-17T13:54:45.005Z,17.00
2022-10-17T13:57:28.110Z,17.10
2022-10-17T14:00:01.831Z,17.00
2022-10-17T14:02:35.347Z,17.00
2022-10-17T14:05:17.383Z,17.00
2022-10-17T14:08:21.693Z,17.00
2022-10-17T14:10:50.015Z,16.90
2022-10-17T14:13:26.917Z,16.90
2022-10-17T14:15:55.634Z,16.80
2022-10-17T14:18:33.299Z,16.80
2022-10-17T14:23:53.624Z,16.70
2022-10-17T14:26:24.288Z,16.70
2022-10-17T14:29:20.918Z,16.60
2022-10-17T14:31:50.629Z,16.60
2022-10-17T14:34:23.337Z,16.50
2022-10-17T14:36:52.193Z,16.50
2022-10-17T14:39:23.176Z,16.40
2022-10-17T14:41:51.018Z,16.30
2022-10-17T14:44:27.758Z,16.20
2022-10-17T14:47:05.934Z,16.10
2022-10-17T14:49:40.934Z,16.00
2022-10-17T14:52:18.567Z,15.90
2022-10-17T14:54:47.893Z,15.80
2022-10-17T14:57:46.868Z,15.70
2022-10-17T15:00:16.025Z,15.70
2022-10-17T15:02:43.539Z,15.60
2022-10-17T15:05:13.222Z,15.50
2022-10-17T15:07:41.074Z,15.40
2022-10-17T15:10:25.754Z,15.40
2022-10-17T15:12:57.558Z,15.40
2022-10-17T15:15:32.386Z,15.30
2022-10-17T15:17:59.250Z,15.30
2022-10-17T15:20:29.515Z,15.30
2022-10-17T15:23:01.103Z,15.30
2022-10-17T15:25:29.603Z,15.20
2022-10-17T15:27:56.918Z,15.20
2022-10-17T15:30:28.914Z,15.20
2022-10-17T15:32:56.479Z,15.20
2022-10-17T15:35:23.431Z,15.20
2022-10-17T15:37:50.944Z,15.20
2022-10-17T15:40:19.670Z,15.20
2022-10-17T15:42:46.633Z,15.20
2022-10-17T15:45:16.472Z,15.20
2022-10-17T15:47:47.095Z,15.20
2022-10-17T15:50:15.331Z,15.20
2022-10-17T15:52:42.461Z,15.20
2022-10-17T15:55:10.913Z,15.10
2022-10-17T15:57:41.363Z,15.20
2022-10-17T16:00:22.531Z,15.20
2022-10-17T16:02:50.174Z,15.20
2022-10-17T16:05:29.172Z,15.10
2022-10-17T16:07:57.999Z,15.10
2022-10-17T16:10:25.962Z,15.10
2022-10-17T16:12:53.248Z,15.00
2022-10-17T16:15:23.006Z,15.00
2022-10-17T16:17:50.734Z,15.00
2022-10-17T16:20:18.461Z,14.90
2022-10-17T16:22:46.487Z,14.80
2022-10-17T16:25:22.767Z,14.80
2022-10-17T16:27:52.099Z,14.70
2022-10-17T16:30:20.337Z,14.70
2022-10-17T16:32:47.841Z,14.70
2022-10-17T16:35:20.891Z,14.70
2022-10-17T16:37:47.965Z,14.60
2022-10-17T16:40:15.700Z,14.60
2022-10-17T16:42:42.496Z,14.50
2022-10-17T16:45:15.401Z,14.50
2022-10-17T16:47:42.394Z,14.40
2022-10-17T16:50:09.700Z,14.40
2022-10-17T16:52:36.530Z,14.30
2022-10-17T16:55:03.623Z,14.20
2022-10-17T16:57:30.482Z,14.20
2022-10-17T16:59:57.360Z,14.10
2022-10-17T17:02:24.182Z,14.10
2022-10-17T17:04:50.997Z,14.10
2022-10-17T17:07:19.468Z,14.00
2022-10-17T17:09:46.451Z,13.90
2022-10-17T17:12:13.386Z,14.00
2022-10-17T17:14:40.349Z,13.90
2022-10-17T17:17:12.234Z,13.90
2022-10-17T17:19:46.876Z,13.90
2022-10-17T17:22:13.757Z,13.80
2022-10-17T17:24:40.608Z,13.80
2022-10-17T17:27:09.994Z,13.80
2022-10-17T17:29:39.588Z,13.80
2022-10-17T17:32:06.483Z,13.90
2022-10-17T17:34:37.094Z,13.90
2022-10-17T17:37:04.325Z,13.90
2022-10-17T17:39:31.336Z,13.90
2022-10-17T17:41:58.341Z,13.90
2022-10-17T17:44:25.530Z,13.90
2022-10-17T17:46:52.433Z,13.90
2022-10-17T17:49:19.501Z,13.90
2022-10-17T17:51:46.608Z,13.90
2022-10-17T17:54:13.709Z,13.90
2022-10-17T17:56:40.722Z,14.00
2022-10-17T17:59:07.674Z,14.00
2022-10-17T18:01:39.116Z,14.00
2022-10-17T18:04:08.872Z,14.00
2022-10-17T18:06:37.538Z,14.00
2022-10-17T18:09:06.169Z,14.00
2022-10-17T18:11:33.516Z,14.00
2022-10-17T18:14:02.737Z,14.00
2022-10-17T18:16:31.694Z,14.00
2022-10-17T18:19:04.098Z,14.00
2022-10-17T18:21:33.921Z,14.00
2022-10-17T18:24:00.999Z,14.00
2022-10-17T18:26:29.032Z,14.00
2022-10-17T18:28:56.591Z,14.00
2022-10-17T18:31:28.247Z,14.00
2022-10-17T18:33:57.690Z,14.00
2022-10-17T18:36:26.186Z,14.00
2022-10-17T18:38:54.414Z,14.00
2022-10-17T18:41:24.168Z,14.00
2022-10-17T18:43:52.190Z,14.00
2022-10-17T18:46:30.991Z,13.90
2022-10-17T18:48:58.342Z,14.00
2022-10-17T18:51:26.632Z,14.00
2022-10-17T18:53:58.665Z,14.00
2022-10-17T18:56:26.138Z,13.90
2022-10-17T18:58:53.614Z,14.00
2022-10-17T19:01:23.331Z,14.00
2022-10-17T19:03:53.181Z,14.00
2022-10-17T19:06:22.951Z,14.00
2022-10-17T19:08:49.821Z,14.00
2022-10-17T19:11:27.203Z,14.00
2022-10-17T19:13:56.880Z,14.00
2022-10-17T19:16:26.268Z,14.00
2022-10-17T19:19:05.151Z,14.00
2022-10-17T19:21:32.610Z,14.00
2022-10-17T19:24:02.633Z,14.00
2022-10-17T19:26:31.688Z,14.00
2022-10-17T19:29:00.387Z,14.00
2022-10-17T19:31:29.868Z,14.10
2022-10-17T19:33:57.305Z,14.10
2022-10-17T19:36:29.017Z,14.10
2022-10-17T19:38:59.521Z,14.10
2022-10-17T19:41:26.485Z,14.20
2022-10-17T19:43:53.496Z,14.20
2022-10-17T19:46:22.420Z,14.20
2022-10-17T19:48:50.348Z,14.20
2022-10-17T19:51:19.340Z,14.20
2022-10-17T19:53:47.020Z,14.30
2022-10-17T19:56:14.130Z,14.30
2022-10-17T19:58:45.371Z,14.30
2022-10-17T20:01:18.719Z,14.30
2022-10-17T20:03:46.763Z,14.40
2022-10-17T20:06:14.374Z,14.40
2022-10-17T20:08:41.980Z,14.40
2022-10-17T20:11:12.046Z,14.40
2022-10-17T20:13:39.153Z,14.40
2022-10-17T20:16:08.174Z,14.40
2022-10-17T20:18:35.522Z,14.40
2022-10-17T20:21:05.958Z,14.40
2022-10-17T20:23:33.299Z,14.40
2022-10-17T20:26:25.427Z,14.40
2022-10-17T20:28:53.658Z,14.50
2022-10-17T20:31:21.094Z,14.50
2022-10-17T20:33:47.906Z,14.50
2022-10-17T20:36:15.016Z,14.50
2022-10-17T20:38:41.975Z,14.40
2022-10-17T20:41:10.175Z,14.50
2022-10-17T20:43:37.910Z,14.50
2022-10-17T20:46:22.708Z,14.50
2022-10-17T20:48:54.634Z,14.50
2022-10-17T20:51:21.792Z,14.50
2022-10-17T20:53:49.182Z,14.50
2022-10-17T20:56:27.516Z,14.50
2022-10-17T20:59:00.012Z,14.50
2022-10-17T21:01:28.184Z,14.50
2022-10-17T21:03:56.981Z,14.50
2022-10-17T21:06:25.733Z,14.50
2022-10-17T21:08:54.312Z,14.50
2022-10-17T21:11:23.558Z,14.40
2022-10-17T21:13:58.717Z,14.40
2022-10-17T21:16:26.452Z,14.40
2022-10-17T21:18:54.723Z,14.40
2022-10-17T21:21:30.492Z,14.40
2022-10-17T21:24:00.793Z,14.40
2022-10-17T21:26:28.255Z,14.40
2022-10-17T21:28:55.248Z,14.40
2022-10-17T21:31:27.576Z,14.40
2022-10-17T21:33:59.997Z,14.40
2022-10-17T21:36:28.089Z,14.40
2022-10-17T21:38:56.874Z,14.40
2022-10-17T21:41:26.373Z,14.40
2022-10-17T21:43:55.820Z,14.50
2022-10-17T21:46:23.443Z,14.50
2022-10-17T21:48:51.807Z,14.50
2022-10-17T21:51:22.411Z,14.50
2022-10-17T21:53:50.928Z,14.40
2022-10-17T21:56:20.095Z,14.50
2022-10-17T21:58:47.968Z,14.50
2022-10-17T22:01:24.759Z,14.50
2022-10-17T22:03:53.849Z,14.40
2022-10-17T22:06:39.327Z,14.40
2022-10-17T22:09:10.135Z,14.40
2022-10-17T22:11:37.137Z,14.40
2022-10-17T22:14:07.889Z,14.40
2022-10-17T22:16:35.064Z,14.40
2022-10-17T22:19:06.249Z,14.40
2022-10-17T22:21:35.412Z,14.40
2022-10-17T22:24:08.264Z,14.40
2022-10-17T22:26:36.904Z,14.30
2022-10-17T22:29:05.632Z,14.30
2022-10-17T22:31:32.884Z,14.20
2022-10-17T22:33:59.645Z,14.20
2022-10-17T22:36:26.735Z,14.20
2022-10-17T22:38:53.777Z,14.10
2022-10-17T22:41:20.773Z,14.10
2022-10-17T22:43:47.609Z,14.10
2022-10-17T22:46:18.795Z,14.10
2022-10-17T22:48:45.949Z,14.10
2022-10-17T22:51:13.223Z,14.00
2022-10-17T22:53:40.239Z,14.00
2022-10-17T22:56:10.907Z,14.00
2022-10-17T22:58:38.284Z,13.90
2022-10-17T23:01:06.824Z,13.90
2022-10-17T23:03:34.360Z,13.90
2022-10-17T23:06:01.601Z,13.90
2022-10-17T23:08:28.607Z,13.80
2022-10-17T23:10:55.441Z,13.80
2022-10-17T23:13:22.675Z,13.80
2022-10-17T23:15:54.176Z,13.80
2022-10-17T23:18:22.086Z,13.80
2022-10-17T23:20:49.652Z,13.80
2022-10-17T23:23:16.949Z,13.80
2022-10-17T23:25:44.062Z,13.80
2022-10-17T23:28:11.858Z,13.80
2022-10-17T23:30:39.618Z,13.80
2022-10-17T23:33:06.820Z,13.80
2022-10-17T23:35:34.226Z,13.80
2022-10-17T23:38:01.245Z,13.80
2022-10-17T23:40:28.183Z,13.70
2022-10-17T23:42:54.960Z,13.70
2022-10-17T23:45:22.197Z,13.70
2022-10-17T23:47:49.251Z,13.80
2022-10-17T23:50:16.434Z,13.70
2022-10-17T23:52:43.392Z,13.70
2022-10-17T23:55:10.963Z,13.70
2022-10-17T23:57:37.757Z,13.70
